Time;durP1;ratioP1;P1;durP2;ratioP2;P2;SDS_P1;SDS_P2;PMS_P1;PMS_P2;Temp;Humidity;BMP_temperature;BMP_pressure;BME280_temperature;BME280_humidity;BME280_pressure;Samples;Min_cycle;Max_cycle;Signal;HPM_P1;HPM_P2
2022/03/11 00:03:35;;;;;;;12.48;9.13;;;;;;;9.54;34.15;100679.84;10354987;28;20169;-62
2022/03/11 00:08:37;;;;;;;10.07;8.60;;;;;;;9.59;34.07;100686.66;10354220;28;20080;-61
2022/03/11 00:13:38;;;;;;;9.85;8.85;;;;;;;9.58;34.05;100680.50;10353145;28;20061;-63
2022/03/11 00:18:40;;;;;;;12.35;9.68;;;;;;;9.42;33.98;100656.78;10359847;28;20140;-64
2022/03/11 00:23:45;;;;;;;14.13;9.65;;;;;;;9.34;34.19;100661.81;10361307;28;20327;-60
2022/03/11 00:28:46;;;;;;;;;;;;;;;9.36;34.64;100684.63;10361640;28;20544;-63
2022/03/11 00:33:47;;;;;;;12.68;9.90;;;;;;;9.28;34.73;100683.47;10358809;28;19995;-61
2022/03/11 00:38:49;;;;;;;11.23;8.93;;;;;;;9.13;34.97;100664.97;10361558;28;20101;-62
2022/03/11 00:43:50;;;;;;;12.30;9.55;;;;;;;9.13;35.38;100683.56;10359933;28;20046;-62
2022/03/11 00:48:51;;;;;;;10.68;9.10;;;;;;;9.13;35.42;100686.22;10358060;28;20037;-62
2022/03/11 00:53:53;;;;;;;11.07;9.88;;;;;;;9.01;35.21;100674.59;10355626;28;20140;-61
2022/03/11 00:58:54;;;;;;;11.48;9.98;;;;;;;8.71;36.19;100653.63;10355869;28;20045;-63
2022/03/11 01:03:56;;;;;;;12.65;9.60;;;;;;;8.60;36.73;100657.00;10358357;28;20041;-63
2022/03/11 01:08:57;;;;;;;13.10;10.82;;;;;;;8.70;36.39;100665.19;10357567;28;20403;-63
2022/03/11 01:13:59;;;;;;;14.20;10.82;;;;;;;8.52;36.50;100651.31;10361204;28;20074;-63
2022/03/11 01:19:01;;;;;;;12.73;11.27;;;;;;;8.43;37.01;100650.06;10358828;28;20049;-62
2022/03/11 01:24:02;;;;;;;15.90;11.45;;;;;;;8.24;37.55;100636.31;10353961;28;20140;-61
2022/03/11 01:29:04;;;;;;;14.50;11.90;;;;;;;8.29;37.91;100650.13;10359412;28;20156;-62
2022/03/11 01:34:05;;;;;;;13.93;11.60;;;;;;;7.96;38.73;100635.44;10361262;28;20441;-61
2022/03/11 01:39:07;;;;;;;14.57;11.00;;;;;;;8.16;38.27;100642.13;10359664;28;20064;-63
2022/03/11 01:44:10;;;;;;;13.40;12.10;;;;;;;8.08;38.75;100634.66;10357561;28;20145;-63
2022/03/11 01:49:11;;;;;;;14.13;12.43;;;;;;;7.89;39.00;100613.75;10357306;28;20104;-61
2022/03/11 01:54:13;;;;;;;15.10;12.23;;;;;;;7.78;39.08;100611.78;10358529;28;20138;-61
2022/03/11 01:59:14;;;;;;;16.13;13.27;;;;;;;7.68;39.64;100608.00;10357356;28;20416;-62
2022/03/11 02:04:15;;;;;;;18.25;13.93;;;;;;;7.75;39.21;100617.28;10358209;28;23116;-61
2022/03/11 02:09:17;;;;;;;15.20;13.07;;;;;;;7.59;39.99;100608.59;10356631;28;20059;-61
2022/03/11 02:14:18;;;;;;;17.10;14.48;;;;;;;7.71;39.90;100621.06;10355861;28;20404;-61
2022/03/11 02:19:20;;;;;;;15.98;14.27;;;;;;;7.55;40.20;100610.59;10351431;28;20049;-61
2022/03/11 02:24:22;;;;;;;18.05;14.10;;;;;;;7.53;40.53;100627.53;10357008;28;20464;-61
2022/03/11 02:29:24;;;;;;;16.23;14.18;;;;;;;7.47;39.96;100618.16;10358967;28;20128;-61
2022/03/11 02:34:25;;;;;;;16.55;14.20;;;;;;;7.36;41.13;100616.16;10358146;28;20059;-61
2022/03/11 02:39:26;;;;;;;17.55;14.63;;;;;;;7.43;40.64;100622.78;10348666;28;20571;-62
2022/03/11 02:44:30;;;;;;;19.00;15.35;;;;;;;7.37;40.88;100609.94;10349917;28;20054;-61
2022/03/11 02:49:32;;;;;;;16.63;14.87;;;;;;;7.35;40.83;100614.44;10352826;28;20054;-61
2022/03/11 02:54:34;;;;;;;18.02;15.05;;;;;;;7.33;41.08;100605.75;10350571;28;20555;-60
2022/03/11 02:59:35;;;;;;;17.73;15.82;;;;;;;7.26;41.17;100599.13;10347702;28;20056;-62
2022/03/11 03:04:36;;;;;;;20.05;14.95;;;;;;;7.12;41.27;100591.19;10352662;28;20057;-61
2022/03/11 03:09:41;;;;;;;17.65;15.20;;;;;;;7.02;41.56;100586.44;10351888;28;20136;-61
2022/03/11 03:14:43;;;;;;;;;;;;;;;7.06;41.65;100603.84;10353853;28;20057;-62
2022/03/11 03:19:45;;;;;;;19.02;16.50;;;;;;;6.96;41.65;100602.69;10349975;28;19928;-63
2022/03/11 03:24:47;;;;;;;18.80;16.83;;;;;;;6.74;41.86;100581.97;10352146;28;20265;-61
2022/03/11 03:29:49;;;;;;;20.73;18.48;;;;;;;6.57;42.02;100575.00;10349738;28;20061;-65
2022/03/11 03:34:50;;;;;;;21.48;16.45;;;;;;;6.89;41.66;100604.00;10350499;28;20145;-61
2022/03/11 03:39:51;;;;;;;20.08;17.85;;;;;;;6.95;41.51;100606.31;10349375;28;20057;-61
2022/03/11 03:44:53;;;;;;;19.23;17.20;;;;;;;6.84;41.73;100603.44;10348141;28;20276;-62
2022/03/11 03:49:55;;;;;;;20.70;17.52;;;;;;;6.77;41.32;100586.19;10351587;28;20626;-63
2022/03/11 03:54:56;;;;;;;21.05;17.10;;;;;;;6.68;41.04;100582.31;10358977;28;20064;-60
2022/03/11 03:59:57;;;;;;;19.02;16.90;;;;;;;6.68;41.24;100598.16;10358609;28;20045;-61
2022/03/11 04:04:59;;;;;;;20.20;17.15;;;;;;;6.41;41.22;100555.69;10363723;28;21340;-62
2022/03/11 04:10:00;;;;;;;20.45;18.33;;;;;;;6.46;41.34;100580.09;10359772;28;20203;-62
2022/03/11 04:15:02;;;;;;;22.73;17.02;;;;;;;6.42;41.30;100575.91;10357919;28;20059;-62
2022/03/11 04:20:04;;;;;;;18.20;16.25;;;;;;;6.47;41.26;100589.69;10359537;28;20053;-62
2022/03/11 04:25:07;;;;;;;21.10;18.90;;;;;;;6.40;41.30;100591.88;10357307;28;20053;-61
2022/03/11 04:30:09;;;;;;;19.92;17.75;;;;;;;6.43;41.13;100588.19;10358838;28;20120;-62
2022/03/11 04:35:10;;;;;;;19.02;17.02;;;;;;;6.47;41.16;100593.22;10356618;28;20172;-61
2022/03/11 04:40:12;;;;;;;18.77;16.77;;;;;;;6.44;40.90;100605.75;10357004;28;20129;-61
2022/03/11 04:45:14;;;;;;;19.45;17.40;;;;;;;6.39;40.61;100597.25;10358752;28;20525;-62
2022/03/11 04:50:15;;;;;;;18.83;16.90;;;;;;;6.41;40.69;100600.63;10358812;28;20045;-61
2022/03/11 04:55:17;;;;;;;19.48;16.38;;;;;;;6.30;40.43;100586.22;10361570;28;20159;-60
2022/03/11 05:00:19;;;;;;;18.88;16.70;;;;;;;6.28;40.39;100600.50;10365251;28;20054;-61
2022/03/11 05:05:21;;;;;;;17.95;16.00;;;;;;;6.04;40.49;100587.72;10359564;28;20052;-62
2022/03/11 05:10:22;;;;;;;19.27;15.77;;;;;;;6.11;40.36;100594.38;10352545;28;20474;-62
2022/03/11 05:15:24;;;;;;;16.70;14.32;;;;;;;6.13;40.27;100600.41;10361603;28;20133;-62
2022/03/11 05:20:26;;;;;;;19.02;16.20;;;;;;;5.90;40.23;100580.56;10355786;28;20173;-61
2022/03/11 05:25:28;;;;;;;17.58;15.73;;;;;;;5.96;40.06;100574.91;10362833;28;20050;-60
2022/03/11 05:30:30;;;;;;;19.40;16.75;;;;;;;5.84;39.96;100594.09;10357376;28;20060;-61
2022/03/11 05:35:31;;;;;;;19.88;16.88;;;;;;;5.74;40.18;100590.25;10354415;28;20497;-62
2022/03/11 05:40:34;;;;;;;21.35;15.30;;;;;;;5.69;40.10;100592.28;10354793;28;20623;-62
2022/03/11 05:45:36;;;;;;;19.05;14.98;;;;;;;5.70;39.66;100615.13;10358255;28;20552;-62
2022/03/11 05:50:37;;;;;;;18.15;15.07;;;;;;;5.53;39.28;100608.13;10354143;28;20104;-64
2022/03/11 05:55:39;;;;;;;16.40;14.57;;;;;;;5.57;39.90;100610.53;10333628;28;20053;-62
2022/03/11 06:00:40;;;;;;;17.50;15.48;;;;;;;5.47;39.39;100598.75;10343777;28;20493;-64
2022/03/11 06:05:42;;;;;;;18.92;13.02;;;;;;;5.48;39.25;100598.66;10340430;28;20135;-61
2022/03/11 06:10:45;;;;;;;16.90;14.77;;;;;;;5.46;39.54;100589.09;10337261;28;20160;-62
2022/03/11 06:15:47;;;;;;;17.63;13.77;;;;;;;5.58;38.78;100606.91;10334863;28;20083;-64
2022/03/11 06:20:48;;;;;;;18.15;13.77;;;;;;;5.47;39.19;100606.66;10341867;28;20188;-62
2022/03/11 06:25:51;;;;;;;20.25;14.63;;;;;;;5.63;38.97;100609.31;10342418;28;20514;-62
2022/03/11 06:30:52;;;;;;;17.90;13.10;;;;;;;5.75;38.61;100607.78;10340528;28;20423;-61
2022/03/11 06:35:54;;;;;;;17.08;15.07;;;;;;;5.73;38.61;100607.03;10348649;28;20055;-61
2022/03/11 06:40:56;;;;;;;15.80;14.05;;;;;;;5.92;38.26;100593.69;10375741;28;20049;-62
2022/03/11 06:45:57;;;;;;;16.77;14.05;;;;;;;6.08;37.79;100605.13;10364810;28;20606;-64
2022/03/11 06:51:04;;;;;;;18.73;13.85;;;;;;;6.04;37.82;100600.94;10348466;28;20420;-66
2022/03/11 06:56:06;;;;;;;15.00;13.15;;;;;;;5.90;38.76;100585.84;10342544;28;20054;-61
2022/03/11 07:01:07;;;;;;;19.23;14.43;;;;;;;6.06;37.52;100575.28;10343262;28;20053;-63
2022/03/11 07:06:09;;;;;;;15.30;13.68;;;;;;;6.34;36.87;100601.00;10337860;28;20054;-60
2022/03/11 07:11:11;;;;;;;17.85;14.05;;;;;;;6.44;36.37;100603.09;10337979;28;20475;-60
2022/03/11 07:16:13;;;;;;;17.08;13.68;;;;;;;6.77;36.21;100623.25;10335827;28;20073;-59
2022/03/11 07:21:14;;;;;;;15.80;13.70;;;;;;;7.12;34.99;100617.66;10339155;28;20317;-60
2022/03/11 07:26:16;;;;;;;17.95;13.82;;;;;;;7.24;34.65;100622.22;10334718;28;21009;-59
2022/03/11 07:31:17;;;;;;;16.13;13.00;;;;;;;7.26;33.72;100612.38;10334625;28;20401;-61
2022/03/11 07:36:19;;;;;;;16.98;13.02;;;;;;;7.56;34.04;100611.44;10340789;28;20050;-66
2022/03/11 07:41:20;;;;;;;18.02;14.00;;;;;;;7.80;33.43;100611.69;10339375;28;20092;-61
2022/03/11 07:46:23;;;;;;;18.40;12.52;;;;;;;7.93;32.85;100598.53;10347739;28;20575;-59
2022/03/11 07:51:25;;;;;;;17.00;11.48;;;;;;;8.18;32.53;100618.16;10347791;28;20666;-62
2022/03/11 07:56:26;;;;;;;15.75;12.32;;;;;;;8.16;32.63;100614.75;10341307;28;20049;-60
2022/03/11 08:01:28;;;;;;;16.20;12.10;;;;;;;8.26;31.91;100611.41;10339068;28;20056;-59
2022/03/11 08:06:30;;;;;;;14.60;11.68;;;;;;;8.46;31.29;100623.38;10354544;28;20084;-61
2022/03/11 08:11:33;;;;;;;14.38;12.02;;;;;;;8.65;31.13;100617.72;10373010;28;20056;-62
2022/03/11 08:16:34;;;;;;;13.25;11.48;;;;;;;8.83;30.41;100622.75;10365865;28;20050;-62
2022/03/11 08:21:36;;;;;;;14.88;10.55;;;;;;;8.35;30.50;100580.78;10358968;28;20053;-62
2022/03/11 08:26:37;;;;;;;12.57;11.27;;;;;;;8.36;30.39;100614.31;10352344;28;20671;-61
2022/03/11 08:31:39;;;;;;;12.43;10.38;;;;;;;8.49;30.28;100590.50;10346161;28;20853;-62
2022/03/11 08:36:43;;;;;;;13.55;9.65;;;;;;;8.87;29.21;100591.53;10344607;28;20603;-61
2022/03/11 08:41:44;;;;;;;10.98;9.82;;;;;;;8.77;29.46;100584.19;10343519;28;20167;-63
2022/03/11 08:46:46;;;;;;;14.13;10.25;;;;;;;9.31;29.02;100588.47;10355022;28;20054;-60
2022/03/11 08:51:47;;;;;;;12.52;11.23;;;;;;;9.63;28.08;100579.19;10352528;28;20049;-62
2022/03/11 08:56:49;;;;;;;11.27;10.07;;;;;;;9.68;28.06;100601.81;10348957;28;23663;-61
2022/03/11 09:01:50;;;;;;;12.38;10.73;;;;;;;9.73;28.44;100574.91;10344809;28;20466;-60
2022/03/11 09:06:52;;;;;;;13.10;9.65;;;;;;;10.01;28.21;100575.56;10347380;28;20060;-61
2022/03/11 09:11:53;;;;;;;13.00;9.82;;;;;;;10.29;27.63;100584.19;10348276;28;20209;-59
2022/03/11 09:16:55;;;;;;;12.70;9.85;;;;;;;10.38;27.63;100557.75;10342412;28;20057;-61
2022/03/11 09:21:56;;;;;;;12.13;9.65;;;;;;;11.10;26.87;100574.53;10362444;28;20701;-63
2022/03/11 09:26:58;;;;;;;12.20;10.05;;;;;;;11.42;26.17;100552.50;10346989;28;20046;-63
2022/03/11 09:32:00;;;;;;;12.73;9.77;;;;;;;11.82;25.59;100549.31;10344214;28;20053;-64
2022/03/11 09:37:01;;;;;;;12.18;10.07;;;;;;;11.94;25.19;100545.66;10340623;28;20520;-60
2022/03/11 09:42:07;;;;;;;11.77;9.48;;;;;;;12.17;25.67;100548.28;10355256;28;20147;-60
2022/03/11 09:47:08;;;;;;;10.77;9.60;;;;;;;11.96;25.51;100541.03;10351302;28;20106;-60
2022/03/11 09:52:11;;;;;;;11.90;10.07;;;;;;;12.22;25.64;100527.41;10342376;28;20506;-60
2022/03/11 09:57:17;;;;;;;14.32;9.50;;;;;;;12.88;24.79;100528.97;10340439;28;20080;-60
2022/03/11 10:02:19;;;;;;;11.05;9.90;;;;;;;13.36;23.88;100525.75;10348411;28;20045;-61
2022/03/11 10:07:22;;;;;;;11.43;10.23;;;;;;;13.90;23.04;100514.72;10343535;28;20053;-61
2022/03/11 10:12:29;;;;;;;15.50;10.85;;;;;;;14.93;22.25;100525.84;10340719;28;20132;-61
2022/03/11 10:17:42;;;;;;;12.75;10.63;;;;;;;17.67;19.37;100525.31;10340914;28;20049;-61
2022/03/11 10:22:47;;;;;;;12.45;11.15;;;;;;;19.77;17.07;100501.34;10342886;28;20049;-60
2022/03/11 10:28:06;;;;;;;12.38;9.75;;;;;;;19.99;17.16;100509.72;10343513;28;20192;-61
2022/03/11 10:33:16;;;;;;;10.50;9.55;;;;;;;19.07;17.53;100506.56;10341546;28;20052;-60
2022/03/11 10:38:20;;;;;;;12.20;9.07;;;;;;;18.58;17.90;100468.03;10342905;28;20555;-61
2022/03/11 10:43:26;;;;;;;10.15;9.10;;;;;;;19.49;17.00;100504.56;10339871;28;20050;-61
2022/03/11 10:48:54;;;;;;;12.52;9.77;;;;;;;20.57;16.34;100496.59;10339295;28;20133;-61
2022/03/11 10:53:58;;;;;;;10.77;9.68;;;;;;;24.24;13.56;100499.03;10341067;28;20148;-61
2022/03/11 10:59:22;;;;;;;11.02;9.93;;;;;;;26.94;11.36;100512.22;10355957;28;20801;-63
2022/03/11 11:04:26;;;;;;;9.73;8.80;;;;;;;27.94;10.53;100493.78;10342262;28;20065;-64
2022/03/11 11:09:28;;;;;;;10.40;9.40;;;;;;;28.83;9.91;100490.28;10331413;28;20053;-64
2022/03/11 11:14:30;;;;;;;10.75;8.77;;;;;;;28.39;9.92;100457.75;10326305;28;20171;-63
2022/03/11 11:19:33;;;;;;;9.23;8.32;;;;;;;28.79;9.71;100437.06;10325889;28;20049;-63
2022/03/11 11:24:36;;;;;;;9.52;8.73;;;;;;;29.80;9.19;100450.38;10325669;28;20268;-63
2022/03/11 11:29:38;;;;;;;9.65;8.73;;;;;;;29.87;9.14;100451.03;10319330;28;20120;-61
2022/03/11 11:34:39;;;;;;;9.43;8.52;;;;;;;31.56;8.30;100449.16;10334002;28;20063;-62
2022/03/11 11:39:51;;;;;;;8.80;8.00;;;;;;;32.14;7.87;100438.41;10344404;28;20042;-63
2022/03/11 11:44:53;;;;;;;9.68;8.10;;;;;;;32.41;7.92;100434.75;10341238;28;20053;-64
2022/03/11 11:49:57;;;;;;;9.55;8.60;;;;;;;33.53;7.55;100432.88;10339093;28;20053;-62
2022/03/11 11:55:17;;;;;;;9.05;8.35;;;;;;;33.19;7.21;100419.50;10342521;28;20072;-61
2022/03/11 12:00:37;;;;;;;8.23;7.47;;;;;;;34.87;6.59;100428.16;10334125;28;20107;-61
2022/03/11 12:05:50;;;;;;;8.65;7.85;;;;;;;33.93;6.77;100411.94;10336999;28;20184;-61
2022/03/11 12:10:51;;;;;;;9.00;8.10;;;;;;;34.22;7.15;100397.59;10335373;28;20050;-60
2022/03/11 12:15:53;;;;;;;9.05;8.02;;;;;;;34.81;6.77;100394.16;10340923;28;20067;-61
2022/03/11 12:20:55;;;;;;;9.40;8.45;;;;;;;35.29;6.07;100379.03;10341290;28;20471;-62
2022/03/11 12:26:02;;;;;;;8.82;8.13;;;;;;;35.33;6.15;100360.75;10340260;28;20056;-62
2022/03/11 12:31:05;;;;;;;7.88;7.18;;;;;;;35.22;6.15;100365.47;10341559;28;20049;-61
2022/03/11 12:36:15;;;;;;;8.70;7.90;;;;;;;35.81;5.94;100357.38;10341478;28;20141;-64
2022/03/11 12:41:17;;;;;;;;;;;;;;;36.67;5.85;100342.91;10339281;28;20943;-62
2022/03/11 12:46:19;;;;;;;8.80;8.10;;;;;;;37.20;5.71;100334.41;10338366;28;20012;-63
2022/03/11 12:51:24;;;;;;;11.23;7.63;;;;;;;37.70;5.22;100313.66;10344874;28;20045;-62
2022/03/11 12:56:25;;;;;;;7.80;7.18;;;;;;;37.64;4.97;100329.63;10338536;28;20045;-63
2022/03/11 13:01:27;;;;;;;7.85;7.03;;;;;;;38.06;5.15;100310.25;10336970;28;20476;-62
2022/03/11 13:06:30;;;;;;;9.18;8.38;;;;;;;37.25;5.25;100298.31;10341166;28;20119;-62
2022/03/11 13:11:32;;;;;;;8.40;7.60;;;;;;;37.40;5.30;100299.19;10337741;28;20049;-61
2022/03/11 13:16:34;;;;;;;8.43;7.72;;;;;;;37.03;5.33;100296.13;10338018;28;20136;-62
2022/03/11 13:21:40;;;;;;;8.32;7.72;;;;;;;37.36;5.41;100287.06;10337874;28;20053;-64
2022/03/11 13:26:41;;;;;;;8.00;7.20;;;;;;;36.87;5.43;100287.19;10345251;28;20849;-63
2022/03/11 13:31:43;;;;;;;8.38;7.57;;;;;;;37.07;5.41;100274.13;10341695;28;20063;-63
2022/03/11 13:36:44;;;;;;;8.85;8.00;;;;;;;36.68;5.34;100266.91;10343880;28;20231;-62
2022/03/11 13:41:52;;;;;;;7.78;7.18;;;;;;;36.48;5.51;100271.59;10338991;28;20575;-62
2022/03/11 13:47:03;;;;;;;7.33;6.60;;;;;;;35.98;5.97;100254.47;10339593;28;20045;-62
2022/03/11 13:52:06;;;;;;;8.32;7.55;;;;;;;35.84;6.05;100259.88;10341695;28;20095;-62
2022/03/11 13:57:19;;;;;;;9.07;7.93;;;;;;;36.97;5.78;100248.22;10342240;28;20049;-62
2022/03/11 14:02:24;;;;;;;8.10;7.40;;;;;;;32.63;7.56;100219.72;10339144;28;20535;-63
2022/03/11 14:07:27;;;;;;;8.25;7.60;;;;;;;32.13;7.83;100232.19;10342506;28;20046;-62
2022/03/11 14:12:29;;;;;;;8.32;7.53;;;;;;;33.30;7.16;100206.91;10342529;28;20818;-62
2022/03/11 14:17:32;;;;;;;7.65;7.05;;;;;;;34.65;6.58;100218.41;10341627;28;20132;-66
2022/03/11 14:22:34;;;;;;;8.75;7.68;;;;;;;33.73;6.96;100209.34;10342709;28;20057;-63
2022/03/11 14:27:36;;;;;;;8.15;7.45;;;;;;;32.38;7.63;100204.78;10340764;28;20133;-63
2022/03/11 14:32:38;;;;;;;9.05;8.02;;;;;;;29.09;9.63;100221.25;10337428;28;20057;-63
2022/03/11 14:37:39;;;;;;;8.38;7.53;;;;;;;25.31;11.66;100214.84;10337917;28;20060;-64
2022/03/11 14:42:42;;;;;;;8.40;7.40;;;;;;;23.18;13.19;100198.13;10334440;28;21109;-61
2022/03/11 14:47:44;;;;;;;8.63;7.80;;;;;;;22.18;14.03;100195.94;10335209;28;20140;-61
2022/03/11 14:52:47;;;;;;;9.18;8.30;;;;;;;20.75;15.47;100190.66;10336775;28;20160;-61
2022/03/11 14:57:49;;;;;;;10.32;8.27;;;;;;;20.25;15.63;100183.19;10333362;28;20193;-60
2022/03/11 15:02:50;;;;;;;9.23;8.13;;;;;;;19.72;16.06;100177.00;10335557;28;20053;-61
2022/03/11 15:07:52;;;;;;;9.88;8.98;;;;;;;18.98;16.69;100170.44;10333563;28;20139;-60
2022/03/11 15:12:54;;;;;;;8.70;7.60;;;;;;;18.53;17.17;100135.16;10332562;28;20184;-60
2022/03/11 15:17:56;;;;;;;9.38;8.07;;;;;;;17.97;17.32;100158.66;10331389;28;22893;-60
2022/03/11 15:22:57;;;;;;;10.05;8.75;;;;;;;17.74;17.75;100158.56;10336266;28;20060;-60
2022/03/11 15:27:59;;;;;;;11.32;8.32;;;;;;;17.23;17.80;100154.25;10333561;28;21533;-61
2022/03/11 15:33:00;;;;;;;9.65;7.72;;;;;;;17.19;18.05;100150.25;10336679;28;20694;-60
2022/03/11 15:38:02;;;;;;;9.35;7.70;;;;;;;16.55;18.55;100142.78;10337740;28;20049;-60
2022/03/11 15:43:05;;;;;;;9.02;7.07;;;;;;;16.00;18.63;100137.91;10336868;28;20050;-60
2022/03/11 15:48:07;;;;;;;8.77;7.83;;;;;;;15.93;18.83;100158.34;10340543;28;20753;-60
2022/03/11 15:53:09;;;;;;;8.00;7.18;;;;;;;15.59;19.05;100151.09;10349997;28;20050;-60
2022/03/11 15:58:12;;;;;;;9.40;8.32;;;;;;;15.31;19.23;100154.78;10349310;28;20049;-60
2022/03/11 16:03:13;;;;;;;8.52;7.35;;;;;;;15.30;19.26;100157.63;10347677;28;20126;-61
2022/03/11 16:08:15;;;;;;;10.80;7.10;;;;;;;14.89;19.32;100131.31;10348313;28;20832;-61
2022/03/11 16:13:16;;;;;;;12.40;7.75;;;;;;;14.90;19.10;100173.22;10348041;28;20140;-61
2022/03/11 16:18:18;;;;;;;9.02;6.80;;;;;;;14.86;19.26;100161.09;10350313;28;20121;-60
2022/03/11 16:23:19;;;;;;;7.78;6.32;;;;;;;14.50;19.43;100172.63;10346665;28;20049;-61
2022/03/11 16:28:21;;;;;;;7.63;6.43;;;;;;;14.46;19.23;100176.59;10352693;28;20462;-61
2022/03/11 16:33:40;;;;;;;6.88;6.18;;;;;;;14.35;19.20;100166.09;10345030;28;20041;-61
2022/03/11 16:38:42;;;;;;;7.65;6.95;;;;;;;14.20;19.17;100162.22;10356493;28;20052;-63
2022/03/11 16:43:44;;;;;;;7.00;5.60;;;;;;;14.08;19.03;100181.19;10352286;28;20103;-61
2022/03/11 16:48:45;;;;;;;8.63;6.32;;;;;;;13.94;19.33;100187.00;10351881;28;20060;-61
2022/03/11 16:53:46;;;;;;;9.82;6.95;;;;;;;13.75;19.31;100180.75;10353012;28;20132;-61
2022/03/11 16:58:48;;;;;;;7.28;6.57;;;;;;;13.74;19.25;100187.06;10350314;28;20458;-60
2022/03/11 17:04:10;;;;;;;7.10;5.68;;;;;;;13.47;19.41;100195.03;10350541;28;20064;-60
2022/03/11 17:09:12;;;;;;;9.23;7.07;;;;;;;13.34;19.31;100179.28;10346438;28;20048;-60
2022/03/11 17:14:14;;;;;;;6.25;4.95;;;;;;;13.33;19.09;100201.63;10347006;28;20050;-59
2022/03/11 17:19:15;;;;;;;9.10;5.50;;;;;;;13.29;19.20;100214.44;10345599;28;20495;-60
2022/03/11 17:24:17;;;;;;;7.30;5.72;;;;;;;13.18;19.19;100211.91;10350952;28;20057;-59
2022/03/11 17:29:18;;;;;;;7.13;5.10;;;;;;;13.09;19.46;100214.47;10346035;28;20630;-62
2022/03/11 17:34:20;;;;;;;5.55;5.05;;;;;;;13.02;19.54;100194.63;10349298;28;21182;-62
2022/03/11 17:39:21;;;;;;;6.68;5.03;;;;;;;12.92;19.08;100204.47;10346684;28;20056;-61
2022/03/11 17:44:23;;;;;;;6.70;5.15;;;;;;;12.76;19.23;100217.53;10337745;28;21012;-61
2022/03/11 17:49:24;;;;;;;7.05;5.43;;;;;;;12.71;19.42;100226.78;10349690;28;20058;-61
2022/03/11 17:54:25;;;;;;;6.82;4.50;;;;;;;12.63;19.32;100223.13;10342540;28;20218;-62
2022/03/11 17:59:27;;;;;;;6.38;4.75;;;;;;;12.61;19.16;100236.63;10346693;28;20057;-61
2022/03/11 18:04:30;;;;;;;6.03;5.28;;;;;;;12.53;19.39;100239.13;10346293;28;20054;-61
2022/03/11 18:09:32;;;;;;;6.60;5.70;;;;;;;12.42;20.01;100242.75;10345645;28;20049;-61
2022/03/11 18:14:39;;;;;;;5.80;5.13;;;;;;;12.29;19.65;100231.47;10346692;28;20247;-62
2022/03/11 18:19:41;;;;;;;6.75;5.60;;;;;;;12.10;19.76;100233.09;10346416;28;20945;-59
2022/03/11 18:24:43;;;;;;;7.78;5.15;;;;;;;12.12;20.14;100231.13;10347492;28;20053;-62
2022/03/11 18:29:44;;;;;;;8.55;5.35;;;;;;;12.18;20.16;100240.41;10344332;28;20503;-59
2022/03/11 18:34:46;;;;;;;8.57;5.65;;;;;;;12.18;20.09;100219.91;10341675;28;20829;-61
2022/03/11 18:39:47;;;;;;;9.88;5.65;;;;;;;12.14;20.25;100222.97;10345402;28;20061;-60
2022/03/11 18:44:49;;;;;;;6.82;5.07;;;;;;;12.10;20.30;100209.06;10344441;28;20485;-60
2022/03/11 18:49:50;;;;;;;8.40;6.88;;;;;;;12.14;20.42;100228.31;10345537;28;20185;-61
2022/03/11 18:54:52;;;;;;;7.75;5.78;;;;;;;12.09;20.46;100226.06;10345460;28;20052;-61
2022/03/11 18:59:54;;;;;;;5.80;5.20;;;;;;;11.97;20.93;100222.63;10349752;28;20180;-60
2022/03/11 19:04:56;;;;;;;7.68;5.47;;;;;;;11.96;20.67;100233.44;10348339;28;20153;-62
2022/03/11 19:09:58;;;;;;;7.40;5.75;;;;;;;11.75;20.58;100233.44;10340807;28;20057;-62
2022/03/11 19:14:59;;;;;;;7.10;6.22;;;;;;;11.64;20.81;100243.19;10347015;28;20046;-61
2022/03/11 19:20:02;;;;;;;9.73;5.82;;;;;;;11.46;21.31;100232.25;10342845;28;20057;-62
2022/03/11 19:25:04;;;;;;;10.80;6.72;;;;;;;11.41;21.35;100247.81;10343560;28;20128;-61
2022/03/11 19:30:07;;;;;;;7.65;5.80;;;;;;;11.38;21.73;100261.41;10340193;28;20128;-61
2022/03/11 19:35:10;;;;;;;8.85;6.53;;;;;;;11.26;21.55;100233.09;10341468;28;20061;-60
2022/03/11 19:40:12;;;;;;;9.32;6.97;;;;;;;11.41;21.72;100261.13;10344938;28;20172;-62
2022/03/11 19:45:16;;;;;;;8.82;6.88;;;;;;;11.30;22.04;100263.84;10342565;28;20119;-60
2022/03/11 19:50:21;;;;;;;8.27;6.63;;;;;;;11.24;21.98;100269.69;10337304;28;20160;-61
2022/03/11 19:55:24;;;;;;;7.40;6.63;;;;;;;11.08;22.08;100257.66;10344340;28;20046;-62
2022/03/11 20:00:26;;;;;;;8.18;7.18;;;;;;;10.98;22.46;100262.03;10339563;28;20056;-63
2022/03/11 20:05:27;;;;;;;7.72;6.95;;;;;;;11.02;22.71;100279.47;10340568;28;20061;-60
2022/03/11 20:10:29;;;;;;;10.20;8.73;;;;;;;11.06;22.55;100272.06;10336445;28;20472;-62
2022/03/11 20:15:32;;;;;;;10.25;8.27;;;;;;;10.94;22.87;100285.41;10341020;28;20187;-62
2022/03/11 20:20:34;;;;;;;12.57;10.73;;;;;;;10.91;23.10;100293.66;10338076;28;20117;-63
2022/03/11 20:25:36;;;;;;;14.82;10.63;;;;;;;10.80;23.57;100285.69;10339791;28;20049;-62
2022/03/11 20:30:37;;;;;;;10.02;8.40;;;;;;;10.78;23.35;100290.31;10337983;28;20192;-61
2022/03/11 20:35:42;;;;;;;10.82;7.88;;;;;;;10.78;23.77;100295.63;10345711;28;20058;-60
2022/03/11 20:40:45;;;;;;;9.85;7.20;;;;;;;10.64;23.87;100301.19;10344697;28;20054;-63
2022/03/11 20:45:47;;;;;;;14.00;8.18;;;;;;;10.43;24.20;100286.81;10348601;28;20168;-61
2022/03/11 20:50:51;;;;;;;9.55;7.35;;;;;;;10.52;24.32;100300.34;10349938;28;20049;-63
2022/03/11 20:55:53;;;;;;;8.10;7.35;;;;;;;10.46;24.48;100299.03;10348420;28;20128;-63
2022/03/11 21:00:55;;;;;;;7.03;6.32;;;;;;;10.37;24.42;100294.44;10349038;28;20163;-60
2022/03/11 21:05:58;;;;;;;9.77;7.30;;;;;;;10.25;24.96;100299.75;10342968;28;20050;-61
2022/03/11 21:11:02;;;;;;;10.27;7.28;;;;;;;10.24;25.04;100318.47;10344522;28;20088;-60
2022/03/11 21:16:03;;;;;;;8.10;7.30;;;;;;;10.15;25.15;100301.41;10352924;28;20901;-61
2022/03/11 21:21:05;;;;;;;8.30;7.15;;;;;;;10.22;24.94;100318.59;10352629;28;20058;-61
2022/03/11 21:26:12;;;;;;;9.40;6.43;;;;;;;10.27;25.28;100319.06;10352931;28;20521;-62
2022/03/11 21:31:15;;;;;;;8.27;7.20;;;;;;;10.04;25.35;100320.88;10346552;28;20391;-60
2022/03/11 21:36:17;;;;;;;8.77;6.90;;;;;;;10.11;25.33;100315.91;10349476;28;20062;-61
2022/03/11 21:41:18;;;;;;;9.48;7.05;;;;;;;10.01;25.09;100312.28;10342603;28;20749;-61
2022/03/11 21:46:25;;;;;;;7.10;6.28;;;;;;;10.06;25.37;100326.91;10347640;28;20175;-63
2022/03/11 21:51:28;;;;;;;8.23;6.65;;;;;;;10.02;25.16;100321.94;10345932;28;20096;-60
2022/03/11 21:56:29;;;;;;;7.35;6.30;;;;;;;9.95;25.12;100326.03;10342259;28;20149;-61
2022/03/11 22:01:30;;;;;;;7.32;6.22;;;;;;;9.95;25.18;100326.88;10352820;28;20057;-61
2022/03/11 22:06:34;;;;;;;9.80;6.70;;;;;;;9.86;25.07;100330.25;10346246;28;20056;-60
2022/03/11 22:11:36;;;;;;;8.43;6.97;;;;;;;9.99;25.10;100349.63;10339067;28;20568;-60
2022/03/11 22:16:39;;;;;;;9.23;7.30;;;;;;;9.86;25.42;100349.72;10344331;28;20716;-61
2022/03/11 22:21:47;;;;;;;7.65;6.85;;;;;;;9.86;25.39;100349.72;10341612;28;20926;-61
2022/03/11 22:26:49;;;;;;;8.77;7.43;;;;;;;9.84;25.60;100353.47;10346835;28;20075;-63
2022/03/11 22:31:52;;;;;;;8.18;6.75;;;;;;;9.83;25.85;100355.28;10340861;28;20052;-61
2022/03/11 22:36:53;;;;;;;9.43;6.70;;;;;;;9.79;25.76;100348.50;10344535;28;20075;-61
2022/03/11 22:41:55;;;;;;;7.25;6.28;;;;;;;9.72;25.38;100353.41;10346843;28;20057;-61
2022/03/11 22:46:56;;;;;;;7.75;6.80;;;;;;;9.44;25.15;100333.34;10349706;28;21724;-62
2022/03/11 22:52:00;;;;;;;9.63;7.25;;;;;;;9.32;25.08;100337.81;10347480;28;20050;-60
2022/03/11 22:57:05;;;;;;;9.50;6.68;;;;;;;9.25;25.15;100343.66;10343572;28;20057;-65
2022/03/11 23:12:48;;;;;;;9.32;6.28;;;;;;;9.25;25.44;100356.94;10355053;28;20083;-62
2022/03/11 23:17:50;;;;;;;8.95;6.30;;;;;;;9.16;25.07;100359.31;10353940;28;20112;-62